Aviation Digital Data Service (ADDS)

Output produced by METARs form (2022 UTC 28 May 2017)
found at http://aviationweather.gov/adds/metars/
 
KSYR 281731Z 2818/2918 12008KT P6SM BKN050 
     FM290500 13010KT P6SM -SHRA OVC035 
     FM290800 13010KT 5SM -SHRA BR OVC015 
     FM291600 17010KT P6SM OVC035